Time;durP1;ratioP1;P1;durP2;ratioP2;P2;SDS_P1;SDS_P2;PMS_P1;PMS_P2;Temp;Humidity;BMP_temperature;BMP_pressure;BME280_temperature;BME280_humidity;BME280_pressure;Samples;Min_cycle;Max_cycle;Signal;HPM_P1;HPM_P2
2021/11/01 00:00:22;;;;;;;67.87;32.37;;;1.30;99.90;;;;;;4126423;28;20319;-67
2021/11/01 00:02:24;;;;;;;67.40;33.87;;;1.30;99.90;;;;;;4127034;28;20331;-63
2021/11/01 00:04:25;;;;;;;68.63;31.33;;;1.30;99.90;;;;;;4125442;28;20303;-63
2021/11/01 00:06:26;;;;;;;64.97;30.53;;;1.30;99.90;;;;;;4127121;28;20319;-64
2021/11/01 00:08:27;;;;;;;61.43;30.77;;;1.40;99.90;;;;;;4126234;28;20601;-62
2021/11/01 00:10:28;;;;;;;71.63;32.90;;;1.40;99.90;;;;;;4126798;28;20268;-69
2021/11/01 00:12:30;;;;;;;68.00;31.97;;;1.40;99.90;;;;;;4124975;28;20288;-67
2021/11/01 00:14:32;;;;;;;64.43;29.47;;;1.40;99.90;;;;;;4127232;28;20315;-67
2021/11/01 00:16:33;;;;;;;65.43;30.27;;;1.40;99.90;;;;;;4125934;28;20279;-63
2021/11/01 00:18:34;;;;;;;65.73;31.20;;;1.40;99.90;;;;;;4126202;28;20295;-66
2021/11/01 00:20:35;;;;;;;69.43;32.10;;;1.40;99.90;;;;;;4125771;28;20334;-64
2021/11/01 00:22:38;;;;;;;60.10;30.27;;;1.30;99.90;;;;;;4127371;28;20659;-67
2021/11/01 00:24:39;;;;;;;57.87;29.13;;;1.30;99.90;;;;;;4125802;28;20794;-62
2021/11/01 00:26:40;;;;;;;60.37;28.83;;;1.30;99.90;;;;;;4126643;28;20280;-74
2021/11/01 00:28:42;;;;;;;61.33;29.77;;;1.30;99.90;;;;;;4125840;28;20264;-67
2021/11/01 00:30:43;;;;;;;63.73;29.40;;;1.20;99.90;;;;;;4125911;28;20260;-62
2021/11/01 00:32:47;;;;;;;53.77;26.17;;;1.20;99.90;;;;;;4126393;28;20260;-62
2021/11/01 00:34:48;;;;;;;57.13;27.07;;;1.10;99.90;;;;;;4125758;28;20268;-65
2021/11/01 00:36:53;;;;;;;54.83;26.53;;;1.10;99.90;;;;;;4127200;28;20298;-62
2021/11/01 00:38:54;;;;;;;50.43;23.87;;;1.00;99.90;;;;;;4125953;28;20342;-67
2021/11/01 00:40:55;;;;;;;58.83;28.20;;;1.10;99.90;;;;;;4127003;28;20609;-62
2021/11/01 00:42:57;;;;;;;63.50;28.87;;;1.10;99.90;;;;;;4126378;28;20256;-63
2021/11/01 00:44:58;;;;;;;54.97;25.73;;;1.00;99.90;;;;;;4127111;28;20300;-62
2021/11/01 00:46:59;;;;;;;57.10;26.53;;;1.00;99.90;;;;;;4125570;28;20272;-62
2021/11/01 00:49:01;;;;;;;64.57;28.30;;;0.80;99.90;;;;;;4126651;28;20268;-62
2021/11/01 00:51:02;;;;;;;54.50;26.63;;;0.70;99.90;;;;;;4125582;28;20323;-68
2021/11/01 00:53:03;;;;;;;65.77;28.70;;;0.60;99.90;;;;;;4126634;28;20334;-61
2021/11/01 00:55:08;;;;;;;52.33;24.27;;;0.60;99.90;;;;;;4124504;28;20354;-62
2021/11/01 00:57:09;;;;;;;56.50;25.40;;;0.50;99.90;;;;;;4126886;28;20256;-65
2021/11/01 00:59:11;;;;;;;53.73;25.47;;;0.50;99.90;;;;;;4125781;28;20671;-63
2021/11/01 01:01:16;;;;;;;57.53;27.10;;;0.30;99.90;;;;;;4122675;28;20310;-63
2021/11/01 01:03:17;;;;;;;72.00;31.97;;;0.20;99.90;;;;;;4125655;28;20268;-64
2021/11/01 01:05:19;;;;;;;61.57;30.03;;;0.10;99.90;;;;;;4125763;28;20345;-67
2021/11/01 01:07:20;;;;;;;68.53;30.03;;;0.10;99.90;;;;;;4124853;28;20747;-63
2021/11/01 01:09:21;;;;;;;71.67;30.70;;;0.10;99.90;;;;;;4124395;28;20327;-62
2021/11/01 01:11:22;;;;;;;69.00;31.37;;;0.20;99.90;;;;;;4126801;28;20272;-63
2021/11/01 01:13:27;;;;;;;61.43;30.47;;;0.10;99.90;;;;;;4125743;28;20276;-62
2021/11/01 01:15:35;;;;;;;67.13;32.57;;;0.10;99.90;;;;;;4126674;28;20252;-62
2021/11/01 01:17:38;;;;;;;67.80;31.87;;;0.10;99.90;;;;;;4125184;28;20712;-64
2021/11/01 01:19:46;;;;;;;70.40;31.27;;;0.20;99.90;;;;;;4126351;28;20303;-62
2021/11/01 01:24:06;;;;;;;68.20;32.37;;;0.20;99.90;;;;;;4126067;28;20315;-62
2021/11/01 01:26:07;;;;;;;69.60;31.30;;;0.20;99.90;;;;;;4124632;28;20288;-63
2021/11/01 01:28:09;;;;;;;62.93;30.90;;;0.20;99.90;;;;;;4126051;28;20331;-63
2021/11/01 01:30:11;;;;;;;75.20;32.00;;;0.20;99.90;;;;;;4110391;28;20273;-63
2021/11/01 01:32:13;;;;;;;72.77;31.83;;;0.20;99.90;;;;;;4109888;28;21071;-61
2021/11/01 01:34:14;;;;;;;67.50;31.10;;;0.30;99.90;;;;;;4108703;28;20273;-62
2021/11/01 01:36:15;;;;;;;63.90;30.03;;;0.30;99.90;;;;;;4111077;28;20340;-62
2021/11/01 01:38:17;;;;;;;75.23;34.50;;;0.30;99.90;;;;;;4108700;28;20316;-67
2021/11/01 01:40:19;;;;;;;81.87;36.17;;;0.20;99.90;;;;;;4109731;28;20285;-66
2021/11/01 01:42:20;;;;;;;69.87;35.97;;;0.20;99.90;;;;;;4109729;28;20264;-62
2021/11/01 01:44:22;;;;;;;76.13;35.63;;;0.20;99.90;;;;;;4109422;28;20728;-73
2021/11/01 01:46:25;;;;;;;75.43;35.07;;;0.20;99.90;;;;;;4108574;28;20292;-63
2021/11/01 01:48:26;;;;;;;69.77;33.57;;;0.10;99.90;;;;;;4109198;28;20347;-62
2021/11/01 01:50:27;;;;;;;74.60;35.83;;;0.20;99.90;;;;;;4109854;28;20615;-65
2021/11/01 01:52:30;;;;;;;71.17;34.23;;;0.10;99.90;;;;;;4108739;28;20277;-62
2021/11/01 01:54:31;;;;;;;71.50;33.80;;;0.10;99.90;;;;;;4109788;28;20280;-62
2021/11/01 01:56:33;;;;;;;67.37;32.53;;;0.20;99.90;;;;;;4108646;28;20272;-62
2021/11/01 01:58:42;;;;;;;67.30;32.20;;;0.20;99.90;;;;;;4109718;28;20265;-65
2021/11/01 02:01:02;;;;;;;67.30;32.53;;;0.20;99.90;;;;;;4091024;28;20376;-62
2021/11/01 02:03:04;;;;;;;68.53;32.97;;;0.20;99.90;;;;;;4109825;28;20273;-64
2021/11/01 02:05:06;;;;;;;70.37;31.23;;;0.20;99.90;;;;;;4108426;28;20052;-65
2021/11/01 02:07:33;;;;;;;70.17;31.87;;;0.10;99.90;;;;;;4108987;28;20276;-64
2021/11/01 02:09:47;;;;;;;73.93;36.27;;;0.10;99.90;;;;;;4108146;28;20268;-63
2021/11/01 02:12:03;;;;;;;92.43;49.83;;;0.10;99.90;;;;;;4110139;28;20277;-66
2021/11/01 02:14:10;;;;;;;93.13;45.23;;;0.00;99.90;;;;;;4108634;28;20268;-62
2021/11/01 02:16:13;;;;;;;82.67;41.70;;;0.00;99.90;;;;;;4124193;28;21216;-61
2021/11/01 02:18:16;;;;;;;77.73;39.33;;;-0.10;99.90;;;;;;4124054;28;20265;-62
2021/11/01 02:20:33;;;;;;;75.27;36.33;;;-0.10;99.90;;;;;;4125699;28;20280;-62
2021/11/01 02:23:03;;;;;;;81.23;37.40;;;-0.10;99.90;;;;;;4124586;28;20284;-65
2021/11/01 02:25:07;;;;;;;70.78;33.90;;;-0.10;99.90;;;;;;4106074;28;20388;-63
2021/11/01 02:27:11;;;;;;;76.77;35.80;;;-0.10;99.90;;;;;;4108073;28;20062;-66
2021/11/01 02:29:13;;;;;;;77.27;37.47;;;0.00;99.90;;;;;;4109316;28;20331;-67
2021/11/01 02:31:19;;;;;;;82.77;34.53;;;0.00;99.90;;;;;;4116066;28;20284;-68
2021/11/01 02:33:23;;;;;;;70.97;33.33;;;0.00;99.90;;;;;;4125098;28;20281;-62
2021/11/01 02:35:25;;;;;;;69.03;32.97;;;-0.10;99.90;;;;;;4124164;28;20264;-62
2021/11/01 02:37:26;;;;;;;64.70;32.20;;;-0.10;99.90;;;;;;4124602;28;20763;-65
2021/11/01 02:39:29;;;;;;;72.83;33.23;;;-0.10;99.90;;;;;;4122983;28;20318;-64
2021/11/01 02:41:35;;;;;;;68.30;33.90;;;0.00;99.90;;;;;;4124778;28;20279;-69
2021/11/01 02:43:36;;;;;;;65.97;31.13;;;0.00;99.90;;;;;;4124283;28;20330;-67
2021/11/01 02:45:37;;;;;;;69.13;29.93;;;0.00;99.90;;;;;;4124195;28;20354;-62
2021/11/01 02:47:40;;;;;;;57.50;27.80;;;0.00;99.90;;;;;;4123384;28;20702;-63
2021/11/01 02:49:41;;;;;;;55.73;26.03;;;0.00;99.90;;;;;;4125565;28;20322;-67
2021/11/01 02:51:42;;;;;;;58.17;27.53;;;0.00;99.90;;;;;;4122620;28;20252;-65
2021/11/01 02:53:48;;;;;;;58.03;26.40;;;0.00;99.90;;;;;;4125056;28;20272;-67
2021/11/01 02:55:49;;;;;;;56.77;27.13;;;0.00;99.90;;;;;;4123455;28;20276;-63
2021/11/01 02:57:51;;;;;;;56.20;26.50;;;0.00;99.90;;;;;;4124556;28;20834;-62
2021/11/01 02:59:52;;;;;;;64.33;29.27;;;0.00;99.90;;;;;;4124586;28;20268;-67
2021/11/01 03:01:53;;;;;;;60.77;28.10;;;0.00;99.90;;;;;;4123962;28;20683;-63
2021/11/01 03:03:55;;;;;;;54.87;26.70;;;0.00;99.90;;;;;;4124668;28;20273;-62
2021/11/01 03:05:56;;;;;;;61.33;28.90;;;0.00;99.90;;;;;;4122960;28;20300;-64
2021/11/01 03:07:58;;;;;;;61.30;28.67;;;0.00;99.90;;;;;;4123266;28;20284;-70
2021/11/01 03:10:01;;;;;;;74.53;31.83;;;0.00;99.90;;;;;;4123291;28;20610;-62
2021/11/01 03:12:07;;;;;;;68.13;30.70;;;0.00;99.90;;;;;;4124884;28;20334;-67
2021/11/01 03:14:10;;;;;;;63.57;29.30;;;0.00;99.90;;;;;;4123749;28;20307;-68
2021/11/01 03:16:17;;;;;;;61.77;28.57;;;0.00;99.90;;;;;;4113669;28;20293;-62
2021/11/01 03:18:20;;;;;;;58.20;27.47;;;0.00;99.90;;;;;;4108537;28;20339;-65
2021/11/01 03:20:28;;;;;;;55.67;26.43;;;-0.10;99.90;;;;;;4111898;28;20348;-62
2021/11/01 03:22:36;;;;;;;51.97;24.70;;;-0.10;99.90;;;;;;4110708;28;20269;-62
2021/11/01 03:24:44;;;;;;;60.90;28.20;;;-0.10;99.90;;;;;;4111902;28;20304;-62
2021/11/01 03:26:47;;;;;;;52.60;26.93;;;-0.20;99.90;;;;;;4110706;28;20324;-68
2021/11/01 03:28:55;;;;;;;50.77;24.97;;;-0.20;99.90;;;;;;4111905;28;20335;-62
2021/11/01 03:30:58;;;;;;;58.20;25.37;;;-0.20;99.90;;;;;;4110870;28;20311;-63
2021/11/01 03:33:00;;;;;;;54.63;25.53;;;-0.20;99.90;;;;;;4111930;28;20261;-67
2021/11/01 03:35:03;;;;;;;60.47;28.20;;;-0.20;99.90;;;;;;4109910;28;21391;-62
2021/11/01 03:37:10;;;;;;;63.80;30.00;;;-0.20;99.90;;;;;;4111453;28;20280;-62
2021/11/01 03:39:13;;;;;;;61.03;30.17;;;-0.20;99.90;;;;;;4110694;28;20269;-62
2021/11/01 03:41:16;;;;;;;59.57;28.80;;;-0.20;99.90;;;;;;4110059;28;20273;-67
2021/11/01 03:43:39;;;;;;;56.47;29.20;;;-0.20;99.90;;;;;;4111497;28;20661;-64
2021/11/01 03:45:40;;;;;;;55.27;28.20;;;-0.20;99.90;;;;;;4110378;28;20308;-61
2021/11/01 03:47:42;;;;;;;57.97;28.77;;;-0.20;99.90;;;;;;4111098;28;20293;-67
2021/11/01 03:49:56;;;;;;;60.53;28.77;;;-0.20;99.90;;;;;;4110950;28;20324;-68
2021/11/01 03:52:09;;;;;;;57.07;27.20;;;-0.20;99.90;;;;;;4110395;28;20882;-62
2021/11/01 03:54:12;;;;;;;58.30;28.63;;;-0.20;99.90;;;;;;4110945;28;20775;-67
2021/11/01 03:56:13;;;;;;;57.57;27.90;;;-0.10;99.90;;;;;;4127189;28;20326;-67
2021/11/01 03:58:15;;;;;;;52.20;26.30;;;-0.20;99.90;;;;;;4126815;28;20665;-64
2021/11/01 04:00:16;;;;;;;56.87;26.63;;;-0.20;99.90;;;;;;4122870;28;20327;-65
2021/11/01 04:02:20;;;;;;;53.63;26.40;;;-0.20;99.90;;;;;;4110246;28;20335;-62
2021/11/01 04:04:21;;;;;;;50.90;26.07;;;-0.20;99.90;;;;;;4111320;28;20728;-68
2021/11/01 04:06:23;;;;;;;47.80;25.37;;;-0.20;99.90;;;;;;4110024;28;20265;-63
2021/11/01 04:08:24;;;;;;;50.77;24.20;;;-0.20;99.90;;;;;;4111639;28;20315;-63
2021/11/01 04:10:25;;;;;;;50.07;24.40;;;-0.20;99.90;;;;;;4109972;28;20921;-62
2021/11/01 04:12:27;;;;;;;50.03;25.10;;;-0.30;99.90;;;;;;4111859;28;20323;-62
2021/11/01 04:14:36;;;;;;;50.10;24.27;;;-0.30;99.90;;;;;;4108890;28;20831;-70
2021/11/01 04:16:42;;;;;;;49.03;24.33;;;-0.30;99.90;;;;;;4111233;28;20327;-62
2021/11/01 04:19:01;;;;;;;57.17;25.67;;;-0.30;99.90;;;;;;4109852;28;20276;-61
2021/11/01 04:21:08;;;;;;;54.40;24.47;;;-0.40;99.90;;;;;;4111501;28;20264;-64
2021/11/01 04:23:11;;;;;;;54.20;25.20;;;-0.50;99.90;;;;;;4108601;28;20347;-68
2021/11/01 04:25:13;;;;;;;51.27;24.87;;;-0.50;99.90;;;;;;4109703;28;20291;-62
2021/11/01 04:27:15;;;;;;;49.87;24.17;;;-0.60;99.90;;;;;;4109415;28;20320;-63
2021/11/01 04:29:17;;;;;;;50.57;23.83;;;-0.50;99.90;;;;;;4110838;28;20763;-62
2021/11/01 04:31:24;;;;;;;44.97;22.93;;;-0.50;99.90;;;;;;4109832;28;20268;-63
2021/11/01 04:33:27;;;;;;;54.20;23.77;;;-0.60;99.90;;;;;;4110653;28;20276;-67
2021/11/01 04:35:34;;;;;;;55.00;22.80;;;-0.60;99.90;;;;;;4109607;28;20320;-62
2021/11/01 04:37:36;;;;;;;49.77;24.00;;;-0.60;99.90;;;;;;4110591;28;20405;-62
2021/11/01 04:53:07;;;;;;;46.37;22.03;;;-0.50;99.90;;;;;;4109735;28;20347;-62
2021/11/01 04:55:09;;;;;;;44.10;22.03;;;-0.60;99.90;;;;;;4125596;28;20381;-70
2021/11/01 04:57:11;;;;;;;47.93;23.07;;;-0.60;99.90;;;;;;4125797;28;20268;-63
2021/11/01 04:59:12;;;;;;;51.53;25.00;;;-0.70;99.90;;;;;;4125607;28;20276;-65
2021/11/01 05:01:18;;;;;;;50.53;24.53;;;-0.70;99.90;;;;;;4120713;28;20280;-63
2021/11/01 05:05:30;;;;;;;51.05;24.45;;;-0.80;99.90;;;;;;4125359;28;20699;-62
2021/11/01 05:07:31;;;;;;;51.43;23.83;;;-0.80;99.90;;;;;;4125870;28;20045;-64
2021/11/01 05:11:55;;;;;;;52.80;24.33;;;-0.80;99.90;;;;;;4118180;28;20350;-65
2021/11/01 05:13:57;;;;;;;55.50;25.43;;;-0.80;99.90;;;;;;4117295;28;20170;-66
2021/11/01 05:20:28;;;;;;;56.73;26.47;;;-0.80;99.90;;;;;;4109557;28;20327;-70
2021/11/01 05:23:12;;;;;;;53.70;25.03;;;-0.70;99.90;;;;;;4109822;28;20299;-64
2021/11/01 05:25:02;;;;;;;60.87;26.80;;;-0.70;99.90;;;;;;4125259;28;20307;-65
2021/11/01 05:29:17;;;;;;;56.97;27.10;;;-0.50;99.90;;;;;;4141726;28;20345;-68
2021/11/01 05:31:21;;;;;;;64.40;27.83;;;-0.40;99.90;;;;;;4141701;28;20260;-62
2021/11/01 05:35:29;;;;;;;58.03;28.07;;;-0.10;99.90;;;;;;4141846;28;20341;-67
2021/11/01 05:37:31;;;;;;;56.73;25.73;;;0.10;99.90;;;;;;4140780;28;20287;-62
2021/11/01 05:39:32;;;;;;;55.07;28.40;;;0.30;99.90;;;;;;4141430;28;20294;-61
2021/11/01 05:41:34;;;;;;;66.13;29.97;;;0.50;99.90;;;;;;4140636;28;20802;-63
2021/11/01 05:43:36;;;;;;;62.20;28.30;;;0.70;99.90;;;;;;4127789;28;20275;-61
2021/11/01 05:45:37;;;;;;;61.53;27.57;;;0.90;99.90;;;;;;4123551;28;20311;-63
2021/11/01 05:47:41;;;;;;;67.17;29.53;;;1.10;99.90;;;;;;4125443;28;20269;-61
2021/11/01 05:49:42;;;;;;;61.73;29.83;;;1.30;99.90;;;;;;4124233;28;20660;-61
2021/11/01 05:51:43;;;;;;;59.97;30.40;;;1.50;99.90;;;;;;4125631;28;20330;-65
2021/11/01 05:53:49;;;;;;;59.47;29.20;;;1.70;99.90;;;;;;4124034;28;20272;-65
2021/11/01 05:56:15;;;;;;;56.17;29.60;;;2.00;99.90;;;;;;4124845;28;20356;-63
2021/11/01 05:58:26;;;;;;;62.43;30.40;;;2.10;99.90;;;;;;4124116;28;20383;-67
2021/11/01 06:00:57;;;;;;;58.43;29.50;;;2.30;99.90;;;;;;4124774;28;20276;-69
2021/11/01 06:03:43;;;;;;;54.40;28.95;;;2.60;99.90;;;;;;4124464;28;20272;-64
2021/11/01 06:13:26;;;;;;;53.23;26.37;;;3.80;99.90;;;;;;4123886;28;20334;-63
2021/11/01 06:13:55;;;;;;;58.20;28.53;;;4.10;99.90;;;;;;4125281;28;20272;-70
2021/11/01 06:15:58;;;;;;;86.53;38.53;;;4.30;99.90;;;;;;4123689;28;20346;-61
2021/11/01 06:18:00;;;;;;;57.20;28.23;;;4.30;99.90;;;;;;4124458;28;20287;-63
2021/11/01 06:20:01;;;;;;;52.70;27.80;;;4.20;99.90;;;;;;4116101;28;20031;-66
2021/11/01 06:22:03;;;;;;;51.47;26.63;;;4.00;99.90;;;;;;4109275;28;20479;-59
2021/11/01 06:24:18;;;;;;;56.43;27.73;;;4.10;99.90;;;;;;4107284;28;20034;-61
2021/11/01 06:26:20;;;;;;;54.93;26.67;;;4.00;99.90;;;;;;4109425;28;20359;-62
2021/11/01 06:28:21;;;;;;;60.83;28.90;;;4.30;99.90;;;;;;4107594;28;20057;-64
2021/11/01 06:32:57;;;;;;;68.80;32.10;;;4.30;99.90;;;;;;4107478;28;20383;-62
2021/11/01 06:50:57;;;;;;;50.73;26.60;;;5.10;99.90;;;;;;4107427;28;20439;-64
2021/11/01 06:57:45;;;;;;;54.67;27.60;;;5.50;99.90;;;;;;4118484;28;20676;-66
2021/11/01 07:16:49;;;;;;;55.27;27.67;;;5.70;99.90;;;;;;4123311;28;20834;-62
2021/11/01 07:18:34;;;;;;;65.30;29.17;;;5.80;99.90;;;;;;4121488;28;20280;-61
2021/11/01 08:36:23;;;;;;;51.53;23.33;;;6.30;99.90;;;;;;4127111;28;20775;-64
2021/11/01 08:43:17;;;;;;;48.37;25.13;;;6.60;99.90;;;;;;4126000;28;20264;-69
2021/11/01 08:45:46;;;;;;;35.20;19.70;;;6.80;99.90;;;;;;4127241;28;20322;-66
2021/11/01 09:25:53;;;;;;;40.50;20.33;;;7.30;99.90;;;;;;4136250;28;20108;-65
2021/11/01 09:30:40;;;;;;;43.17;20.87;;;7.60;99.90;;;;;;4108788;28;20098;-66
2021/11/01 09:41:25;;;;;;;50.63;25.10;;;7.60;99.90;;;;;;4134533;28;20093;-60
2021/11/01 09:43:30;;;;;;;45.83;24.37;;;7.70;99.90;;;;;;4123883;28;20085;-68
2021/11/01 09:45:35;;;;;;;54.67;25.70;;;7.70;99.90;;;;;;4125500;28;20034;-70
2021/11/01 09:47:38;;;;;;;49.13;24.27;;;7.70;99.90;;;;;;4124321;28;20050;-65
2021/11/01 09:49:39;;;;;;;45.90;25.00;;;7.80;99.90;;;;;;4124654;28;20037;-63
2021/11/01 09:51:43;;;;;;;51.67;26.77;;;7.80;99.90;;;;;;4124281;28;20434;-64
2021/11/01 09:53:47;;;;;;;56.87;28.07;;;7.80;99.90;;;;;;4133834;28;20017;-64
2021/11/01 09:55:50;;;;;;;42.43;24.33;;;7.90;99.90;;;;;;4134901;28;20441;-61
2021/11/01 10:00:13;;;;;;;47.33;24.75;;;8.00;99.90;;;;;;4117555;28;20073;-62
2021/11/01 10:02:17;;;;;;;42.93;22.40;;;8.10;99.90;;;;;;4109274;28;20093;-71
2021/11/01 10:04:30;;;;;;;43.70;23.37;;;8.20;99.90;;;;;;4108181;28;20069;-66
2021/11/01 10:06:31;;;;;;;49.63;24.33;;;8.20;99.90;;;;;;4109367;28;20464;-62
2021/11/01 10:08:33;;;;;;;39.57;23.00;;;8.30;99.90;;;;;;4110352;28;20030;-62
2021/11/01 10:10:41;;;;;;;48.50;22.93;;;8.40;99.90;;;;;;4124791;28;20379;-63
2021/11/01 10:12:44;;;;;;;44.23;23.50;;;8.50;99.90;;;;;;4124140;28;20034;-61
2021/11/01 10:14:51;;;;;;;43.50;22.57;;;8.60;99.90;;;;;;4124826;28;20486;-62
2021/11/01 10:19:24;;;;;;;38.83;21.05;;;8.80;99.90;;;;;;4124653;28;20054;-66
2021/11/01 10:21:25;;;;;;;41.13;22.50;;;8.90;99.90;;;;;;4124202;28;20035;-63
2021/11/01 10:23:33;;;;;;;37.07;21.23;;;9.00;99.90;;;;;;4124853;28;20089;-61
2021/11/01 10:25:34;;;;;;;36.83;21.37;;;9.10;99.90;;;;;;4123874;28;20065;-63
2021/11/01 10:27:40;;;;;;;35.70;20.70;;;9.20;99.90;;;;;;4124219;28;20042;-66
2021/11/01 10:29:57;;;;;;;34.33;19.00;;;9.20;99.90;;;;;;4124415;28;20054;-61
2021/11/01 10:32:00;;;;;;;31.50;17.37;;;9.40;99.90;;;;;;4122473;28;20063;-61
2021/11/01 10:34:07;;;;;;;36.07;19.23;;;9.40;99.90;;;;;;4124928;28;20677;-62
2021/11/01 10:36:08;;;;;;;32.50;17.67;;;9.60;99.90;;;;;;4122506;28;20050;-61
2021/11/01 10:38:20;;;;;;;31.70;18.67;;;9.70;99.90;;;;;;4124447;28;20073;-64
2021/11/01 10:40:24;;;;;;;30.03;17.67;;;9.90;99.90;;;;;;4123107;28;20050;-61
2021/11/01 10:42:31;;;;;;;29.20;17.40;;;10.00;99.90;;;;;;4124022;28;20046;-60
2021/11/01 11:19:28;;;;;;;16.23;9.47;;;11.40;97.90;;;;;;4122968;28;20058;-70
2021/11/01 11:49:23;;;;;;;18.77;10.75;;;12.00;96.20;;;;;;4118572;28;20557;-65
2021/11/01 11:51:26;;;;;;;18.20;10.07;;;12.10;95.60;;;;;;4111148;28;20809;-65
2021/11/01 11:53:27;;;;;;;17.30;9.37;;;12.10;96.10;;;;;;4110282;28;20117;-61
2021/11/01 11:55:29;;;;;;;17.37;9.97;;;12.10;95.80;;;;;;4111103;28;20088;-62
2021/11/01 11:57:35;;;;;;;17.77;10.47;;;12.10;95.80;;;;;;4110404;28;20121;-66
2021/11/01 11:59:38;;;;;;;18.03;9.57;;;12.20;95.30;;;;;;4110670;28;20115;-63
2021/11/01 12:01:50;;;;;;;17.27;9.17;;;12.20;95.20;;;;;;4110564;28;20105;-62
2021/11/01 12:03:52;;;;;;;17.23;8.60;;;12.20;95.20;;;;;;4111432;28;20055;-61
2021/11/01 12:06:11;;;;;;;15.53;9.33;;;12.20;95.20;;;;;;4108479;28;20095;-66
2021/11/01 12:08:27;;;;;;;17.33;9.87;;;12.30;95.40;;;;;;4111614;28;20042;-74
2021/11/01 12:17:12;;;;;;;16.60;9.30;;;12.30;94.70;;;;;;4099593;28;20455;-64
2021/11/01 12:19:16;;;;;;;15.83;8.57;;;12.30;94.30;;;;;;4118551;28;20049;-68
2021/11/01 12:21:17;;;;;;;18.20;9.70;;;12.30;94.40;;;;;;4127143;28;20125;-67
2021/11/01 12:23:18;;;;;;;19.03;11.10;;;12.30;94.40;;;;;;4125025;28;20098;-64
2021/11/01 12:25:22;;;;;;;16.40;8.50;;;12.40;94.30;;;;;;4125865;28;20511;-61
2021/11/01 12:27:24;;;;;;;15.67;8.40;;;12.40;93.70;;;;;;4124042;28;20121;-62
2021/11/01 12:29:26;;;;;;;18.13;8.47;;;12.40;93.40;;;;;;4126515;28;20085;-63
2021/11/01 12:31:29;;;;;;;20.60;8.53;;;12.40;93.50;;;;;;4124901;28;20042;-62
2021/11/01 12:33:32;;;;;;;15.47;8.27;;;12.40;93.20;;;;;;4126521;28;20034;-67
2021/11/01 12:35:36;;;;;;;15.13;9.13;;;12.40;93.30;;;;;;4120565;28;20030;-63
2021/11/01 12:37:42;;;;;;;13.27;8.27;;;12.40;93.20;;;;;;4123503;28;20081;-69
2021/11/01 12:39:49;;;;;;;16.37;8.53;;;12.50;93.20;;;;;;4125286;28;20453;-68
2021/11/01 12:58:23;;;;;;;20.20;9.57;;;12.70;91.70;;;;;;4140662;28;20277;-61
2021/11/01 13:00:24;;;;;;;19.03;9.57;;;12.80;92.40;;;;;;4142226;28;20524;-65
2021/11/01 13:02:32;;;;;;;15.73;8.83;;;12.80;92.40;;;;;;4123856;28;20054;-62
2021/11/01 13:04:38;;;;;;;13.33;8.13;;;12.90;92.30;;;;;;4126526;28;21054;-62
2021/11/01 13:09:05;;;;;;;21.03;9.77;;;13.00;92.30;;;;;;4136619;28;20081;-61
2021/11/01 13:18:13;;;;;;;16.67;9.23;;;12.80;92.40;;;;;;4126256;28;20085;-61
2021/11/01 13:20:17;;;;;;;13.57;9.00;;;12.80;92.30;;;;;;4125238;28;20553;-60
2021/11/01 13:22:26;;;;;;;15.03;8.90;;;12.80;92.40;;;;;;4126223;28;20243;-62
2021/11/01 13:24:46;;;;;;;16.07;8.50;;;12.80;92.20;;;;;;4125034;28;20026;-61
2021/11/01 13:26:57;;;;;;;16.52;8.48;;;12.90;92.10;;;;;;4125946;28;20113;-60
2021/11/01 13:29:13;;;;;;;16.85;8.88;;;12.90;92.10;;;;;;4124333;28;20038;-60
2021/11/01 13:38:24;;;;;;;;;;;13.00;91.10;;;;;;4125121;28;20426;-60
2021/11/01 13:40:25;;;;;;;9.33;5.93;;;13.00;90.50;;;;;;4124474;28;19984;-61
2021/11/01 13:42:26;;;;;;;10.93;6.10;;;13.00;91.10;;;;;;4124608;28;20026;-60
2021/11/01 13:44:28;;;;;;;14.60;6.80;;;13.00;91.10;;;;;;4125653;28;20644;-65
2021/11/01 13:46:29;;;;;;;22.07;11.97;;;13.00;91.10;;;;;;4124807;28;20096;-70
2021/11/01 13:48:32;;;;;;;16.97;8.77;;;13.00;91.10;;;;;;4124873;28;20110;-60
2021/11/01 13:50:38;;;;;;;11.87;6.17;;;13.00;90.90;;;;;;4124332;28;20441;-60
2021/11/01 13:52:41;;;;;;;9.47;6.57;;;13.00;90.70;;;;;;4125716;28;20087;-61
2021/11/01 13:55:03;;;;;;;13.33;6.20;;;13.00;90.80;;;;;;4124174;28;20474;-63
2021/11/01 13:57:06;;;;;;;15.00;6.97;;;13.00;90.50;;;;;;4124916;28;20540;-60
2021/11/01 14:15:51;;;;;;;19.50;7.80;;;12.80;90.80;;;;;;4108273;28;20030;-61
2021/11/01 15:26:27;;;;;;;15.80;8.53;;;10.70;92.40;;;;;;4126462;28;20038;-62
2021/11/01 15:33:23;;;;;;;20.27;10.13;;;10.50;92.70;;;;;;4126502;28;20430;-65
2021/11/01 15:38:08;;;;;;;26.10;12.00;;;10.40;92.90;;;;;;4126803;28;20096;-59
2021/11/01 15:40:35;;;;;;;26.87;11.43;;;10.40;93.00;;;;;;4127592;28;20134;-65
2021/11/01 16:19:41;;;;;;;36.10;17.47;;;9.30;95.00;;;;;;4110886;28;20109;-60
2021/11/01 16:21:44;;;;;;;38.37;15.20;;;9.20;95.10;;;;;;4109118;28;20043;-62
2021/11/01 16:23:46;;;;;;;25.80;13.37;;;9.10;95.30;;;;;;4110966;28;20680;-61
2021/11/01 16:25:55;;;;;;;27.53;13.63;;;9.10;95.40;;;;;;4107916;28;20093;-63
2021/11/01 16:27:56;;;;;;;37.30;15.80;;;9.00;95.50;;;;;;4110906;28;20034;-61
2021/11/01 16:30:01;;;;;;;49.40;17.93;;;8.90;95.60;;;;;;4109710;28;20055;-61
2021/11/01 16:32:06;;;;;;;47.13;18.73;;;8.90;95.80;;;;;;4109960;28;20085;-61
2021/11/01 16:34:52;;;;;;;43.47;19.47;;;8.80;95.90;;;;;;4109465;28;20530;-64
2021/11/01 16:38:51;;;;;;;58.97;21.27;;;8.60;96.30;;;;;;4108922;28;20109;-62
2021/11/01 16:40:54;;;;;;;72.37;28.43;;;8.50;96.50;;;;;;4110177;28;20101;-61
2021/11/01 16:42:56;;;;;;;83.60;32.30;;;8.50;96.70;;;;;;4109426;28;20093;-62
2021/11/01 16:45:04;;;;;;;80.13;31.13;;;8.40;96.90;;;;;;4110248;28;20039;-65
2021/11/01 16:47:06;;;;;;;83.27;31.23;;;8.30;97.10;;;;;;4109216;28;20027;-62
2021/11/01 16:49:08;;;;;;;73.97;29.87;;;8.30;97.20;;;;;;4110223;28;20550;-62
2021/11/01 16:51:11;;;;;;;83.67;30.60;;;8.20;97.30;;;;;;4109409;28;20039;-63
2021/11/01 16:53:13;;;;;;;85.87;32.23;;;8.20;97.40;;;;;;4110273;28;20023;-64
2021/11/01 16:55:20;;;;;;;89.33;33.43;;;8.10;97.60;;;;;;4108983;28;20097;-62
2021/11/01 16:57:29;;;;;;;95.57;33.90;;;8.10;97.90;;;;;;4109737;28;20039;-63
2021/11/01 17:01:51;;;;;;;89.07;37.20;;;8.10;97.70;;;;;;4110291;28;20093;-62
2021/11/01 17:04:07;;;;;;;88.13;36.30;;;8.00;97.80;;;;;;4109420;28;20042;-61
2021/11/01 17:22:47;;;;;;;62.60;29.23;;;7.60;98.20;;;;;;4109078;28;20416;-62
2021/11/01 18:41:47;;;;;;;110.77;45.40;;;5.70;99.90;;;;;;4109229;28;19973;-64
2021/11/01 18:44:26;;;;;;;103.47;45.33;;;5.60;99.90;;;;;;4106352;28;20382;-65
2021/11/01 18:51:09;;;;;;;103.23;43.37;;;5.40;99.90;;;;;;4109103;28;20100;-63
2021/11/01 18:53:14;;;;;;;101.53;42.93;;;5.30;99.90;;;;;;4108048;28;20261;-62
2021/11/01 18:55:16;;;;;;;100.40;43.03;;;5.30;99.90;;;;;;4109245;28;20273;-60
2021/11/01 18:57:19;;;;;;;107.17;45.97;;;5.20;99.90;;;;;;4107545;28;20812;-62
2021/11/01 18:59:22;;;;;;;97.47;42.30;;;5.10;99.90;;;;;;4109041;28;20804;-61
2021/11/01 19:01:24;;;;;;;92.67;43.20;;;5.10;99.90;;;;;;4107747;28;20252;-61
2021/11/01 19:03:27;;;;;;;101.57;43.93;;;5.10;99.90;;;;;;4109020;28;20304;-60
2021/11/01 19:05:36;;;;;;;106.13;45.63;;;5.00;99.90;;;;;;4107269;28;20331;-59
2021/11/01 19:07:42;;;;;;;99.03;45.10;;;5.00;99.90;;;;;;4108740;28;20264;-61
2021/11/01 19:09:56;;;;;;;102.77;42.27;;;5.00;99.90;;;;;;4107079;28;20769;-67
2021/11/01 20:04:14;;;;;;;94.77;40.13;;;3.90;99.90;;;;;;4111808;28;20661;-61
2021/11/01 20:06:41;;;;;;;98.53;45.03;;;3.80;99.90;;;;;;4110163;28;20297;-59
2021/11/01 21:26:18;;;;;;;104.30;44.13;;;2.40;99.90;;;;;;4109869;28;20772;-60
2021/11/01 21:28:20;;;;;;;100.67;42.90;;;2.30;99.90;;;;;;4108854;28;20312;-61
2021/11/01 21:30:21;;;;;;;101.03;45.00;;;2.20;99.90;;;;;;4110304;28;20336;-60
2021/11/01 21:32:24;;;;;;;102.40;43.33;;;2.10;99.90;;;;;;4108843;28;20343;-60
2021/11/01 21:34:31;;;;;;;102.47;46.73;;;2.00;99.90;;;;;;4109697;28;20835;-60
2021/11/01 21:36:32;;;;;;;109.60;47.83;;;2.00;99.90;;;;;;4108524;28;20665;-59
2021/11/01 21:38:34;;;;;;;90.80;40.93;;;2.00;99.90;;;;;;4109430;28;20273;-60
2021/11/01 21:40:35;;;;;;;94.83;39.00;;;2.00;99.90;;;;;;4108651;28;20292;-60
2021/11/01 21:42:37;;;;;;;90.73;38.13;;;2.00;99.90;;;;;;4109214;28;20358;-61
2021/11/01 21:44:39;;;;;;;65.60;28.63;;;2.00;99.90;;;;;;4109461;28;20657;-64
2021/11/01 21:46:40;;;;;;;76.80;31.93;;;1.90;99.90;;;;;;4109648;28;20327;-57
2021/11/01 21:48:41;;;;;;;87.77;37.43;;;1.80;99.90;;;;;;4109361;28;20784;-60
2021/11/01 21:50:47;;;;;;;73.53;33.17;;;1.70;99.90;;;;;;4108614;28;20280;-58
2021/11/01 21:52:49;;;;;;;87.20;37.83;;;1.60;99.90;;;;;;4109637;28;20333;-60
2021/11/01 21:54:53;;;;;;;81.37;36.73;;;1.60;99.90;;;;;;4108724;28;20260;-60